Time;durP1;ratioP1;P1;durP2;ratioP2;P2;SDS_P1;SDS_P2;PMS_P1;PMS_P2;Temp;Humidity;BMP_temperature;BMP_pressure;BME280_temperature;BME280_humidity;BME280_pressure;Samples;Min_cycle;Max_cycle;Signal;HPM_P1;HPM_P2
2022/07/02 00:01:14;;;;;;;1.85;1.27;;;;;;;12.59;100.00;96527.22;5113057;27;24796;-75
2022/07/02 00:03:50;;;;;;;1.75;1.30;;;;;;;12.60;100.00;96527.13;5109032;27;24433;-75
2022/07/02 00:06:18;;;;;;;5.60;1.23;;;;;;;12.62;100.00;96529.66;5118186;27;24429;-75
2022/07/02 00:08:46;;;;;;;2.67;1.02;;;;;;;12.62;100.00;96526.22;5116986;27;24538;-75
2022/07/02 00:11:15;;;;;;;3.80;1.27;;;;;;;12.53;100.00;96527.56;5110599;27;24437;-75
2022/07/02 00:13:42;;;;;;;3.15;1.45;;;;;;;12.26;100.00;96520.47;5110391;27;24535;-74
2022/07/02 00:16:10;;;;;;;6.80;1.17;;;;;;;12.26;100.00;96530.00;5119233;27;24460;-75
2022/07/02 00:18:37;;;;;;;1.60;1.10;;;;;;;12.22;100.00;96523.31;5114841;27;24437;-75
2022/07/02 00:21:06;;;;;;;2.85;1.30;;;;;;;12.00;100.00;96518.50;5115394;27;24445;-75
2022/07/02 00:23:32;;;;;;;2.88;1.40;;;;;;;11.92;100.00;96512.91;5117018;27;24444;-74
2022/07/02 00:26:04;;;;;;;1.00;0.90;;;;;;;12.03;100.00;96513.97;5117357;27;24487;-75
2022/07/02 00:28:34;;;;;;;1.80;1.10;;;;;;;11.91;100.00;96506.91;5119189;27;24441;-74
2022/07/02 00:31:00;;;;;;;1.10;1.00;;;;;;;11.79;100.00;96511.00;5118934;27;24440;-75
2022/07/02 00:33:29;;;;;;;1.90;1.17;;;;;;;11.89;100.00;96510.50;5122414;27;24436;-74
2022/07/02 00:35:57;;;;;;;5.85;1.50;;;;;;;11.84;100.00;96513.34;5120265;27;24773;-75
2022/07/02 00:38:24;;;;;;;1.93;1.20;;;;;;;11.75;100.00;96513.81;5120411;27;24473;-75
2022/07/02 00:40:52;;;;;;;2.75;0.95;;;;;;;11.70;100.00;96515.84;5121231;27;24832;-75
2022/07/02 00:43:19;;;;;;;5.33;1.20;;;;;;;11.62;100.00;96522.28;5119441;27;24441;-74
2022/07/02 00:45:45;;;;;;;19.67;1.23;;;;;;;11.58;100.00;96525.97;5119706;27;24441;-75
2022/07/02 00:48:13;;;;;;;1.70;1.08;;;;;;;11.49;100.00;96516.09;5116357;27;24448;-75
2022/07/02 00:50:40;;;;;;;2.05;0.80;;;;;;;11.53;100.00;96521.94;5121297;27;24953;-76
2022/07/02 00:53:06;;;;;;;3.60;1.00;;;;;;;11.41;100.00;96520.03;5122499;27;24517;-76
2022/07/02 00:55:34;;;;;;;0.90;0.90;;;;;;;11.29;100.00;96519.75;5116843;27;24434;-76
2022/07/02 00:58:01;;;;;;;2.10;1.02;;;;;;;11.31;100.00;96517.94;5122212;27;24460;-76
2022/07/02 01:00:27;;;;;;;2.05;1.10;;;;;;;11.31;100.00;96524.84;5117937;27;24469;-75
2022/07/02 01:02:57;;;;;;;1.13;1.02;;;;;;;11.30;100.00;96520.59;5122306;27;24509;-76
2022/07/02 01:05:24;;;;;;;1.63;0.93;;;;;;;11.30;100.00;96518.00;5119189;27;25004;-76
2022/07/02 01:10:16;;;;;;;1.52;0.80;;;;;;;11.31;100.00;96519.66;5120539;27;24436;-76
2022/07/02 01:10:42;;;;;;;1.77;0.70;;;;;;;11.35;100.00;96511.66;5122196;27;24976;-76
2022/07/02 01:13:11;;;;;;;1.20;0.82;;;;;;;11.47;100.00;96504.13;5125147;28;24453;-76
2022/07/02 01:15:38;;;;;;;1.65;0.95;;;;;;;11.52;100.00;96507.31;5119472;27;24429;-75
2022/07/02 01:18:04;;;;;;;0.82;0.80;;;;;;;11.59;100.00;96511.25;5123180;28;24441;-75
2022/07/02 01:20:31;;;;;;;0.70;0.65;;;;;;;11.62;100.00;96501.53;5121376;28;24479;-76
2022/07/02 01:22:58;;;;;;;1.05;0.68;;;;;;;11.67;100.00;96497.84;5111466;28;24465;-76
2022/07/02 01:25:25;;;;;;;4.30;1.00;;;;;;;11.66;100.00;96494.41;5120553;28;25070;-76
2022/07/02 01:27:52;;;;;;;1.05;0.70;;;;;;;11.67;100.00;96492.66;5124565;27;24852;-76
2022/07/02 01:30:19;;;;;;;0.90;0.60;;;;;;;11.67;100.00;96493.50;5128285;27;24437;-76
2022/07/02 01:32:45;;;;;;;6.63;1.13;;;;;;;11.67;100.00;96495.25;5118374;27;24440;-76
2022/07/02 01:35:12;;;;;;;0.95;0.73;;;;;;;11.52;100.00;96504.72;5117163;27;24432;-75
2022/07/02 01:37:40;;;;;;;2.10;1.00;;;;;;;11.43;100.00;96500.03;5123498;27;24459;-76
2022/07/02 01:40:10;;;;;;;1.52;0.90;;;;;;;11.41;100.00;96496.69;5129542;27;24425;-75
2022/07/02 01:42:37;;;;;;;1.43;0.70;;;;;;;11.44;100.00;96499.13;5123569;27;24506;-76
2022/07/02 01:45:04;;;;;;;1.17;0.85;;;;;;;11.43;100.00;96494.84;5117817;27;24533;-76
2022/07/02 01:47:31;;;;;;;1.50;0.50;;;;;;;11.51;100.00;96490.91;5111326;27;24433;-76
2022/07/02 01:49:57;;;;;;;0.57;0.50;;;;;;;11.53;100.00;96504.66;5126497;27;24428;-76
2022/07/02 01:52:26;;;;;;;0.73;0.50;;;;;;;11.52;100.00;96499.53;5114654;27;24517;-76
2022/07/02 01:54:52;;;;;;;0.90;0.50;;;;;;;11.55;100.00;96496.78;5117629;27;24437;-76
2022/07/02 01:57:20;;;;;;;1.00;0.60;;;;;;;11.50;100.00;96496.19;5118539;27;24468;-76
2022/07/02 01:59:46;;;;;;;1.87;0.77;;;;;;;11.48;100.00;96492.84;5125049;27;24526;-76
2022/07/02 02:02:13;;;;;;;1.10;0.70;;;;;;;11.48;100.00;96485.88;5121754;27;24449;-75
2022/07/02 02:04:39;;;;;;;1.23;0.75;;;;;;;11.51;100.00;96497.88;5115540;27;24433;-76
2022/07/02 02:07:06;;;;;;;2.83;0.82;;;;;;;11.53;100.00;96496.00;5123047;27;24434;-76
2022/07/02 02:09:33;;;;;;;1.38;0.70;;;;;;;11.45;100.00;96495.59;5124808;27;25417;-76
2022/07/02 02:12:00;;;;;;;1.48;0.70;;;;;;;11.22;100.00;96495.09;5118511;27;24452;-75
2022/07/02 02:14:28;;;;;;;1.10;0.82;;;;;;;11.13;100.00;96499.00;5119118;27;24452;-75
2022/07/02 02:16:54;;;;;;;1.38;0.90;;;;;;;11.12;100.00;96499.06;5117692;27;24995;-76
2022/07/02 02:19:21;;;;;;;2.72;0.80;;;;;;;11.16;100.00;96490.25;5123051;27;24839;-76
2022/07/02 02:21:47;;;;;;;1.10;0.60;;;;;;;11.06;100.00;96495.06;5125353;27;25009;-75
2022/07/02 02:24:14;;;;;;;2.92;0.88;;;;;;;11.06;100.00;96494.25;5110972;27;24478;-75
2022/07/02 02:26:40;;;;;;;3.80;0.60;;;;;;;11.07;100.00;96494.16;5123475;27;24514;-75
2022/07/02 02:29:06;;;;;;;2.55;0.73;;;;;;;11.15;100.00;96491.13;5121571;27;24436;-76
2022/07/02 02:31:35;;;;;;;1.50;0.60;;;;;;;11.07;100.00;96493.31;5114631;27;24554;-76
2022/07/02 02:34:01;;;;;;;1.88;0.77;;;;;;;10.95;100.00;96492.22;5112638;27;24445;-76
2022/07/02 02:36:27;;;;;;;1.17;0.60;;;;;;;10.93;100.00;96495.78;5115671;27;24496;-75
2022/07/02 02:38:54;;;;;;;3.05;0.82;;;;;;;10.98;100.00;96493.81;5121810;27;24440;-75
2022/07/02 02:41:20;;;;;;;3.08;0.77;;;;;;;11.00;100.00;96492.78;5118030;27;24850;-75
2022/07/02 02:43:47;;;;;;;2.03;0.70;;;;;;;10.90;100.00;96492.47;5115796;27;24437;-75
2022/07/02 02:46:13;;;;;;;0.85;0.60;;;;;;;10.88;100.00;96499.47;5124642;27;24462;-76
2022/07/02 02:48:41;;;;;;;1.08;0.60;;;;;;;10.83;100.00;96498.88;5121461;27;24833;-75
2022/07/02 02:51:09;;;;;;;1.07;0.50;;;;;;;10.87;100.00;96489.19;5124606;27;24437;-76
2022/07/02 02:53:36;;;;;;;1.17;0.57;;;;;;;10.86;100.00;96498.72;5121643;27;24445;-76
2022/07/02 02:56:03;;;;;;;7.40;0.98;;;;;;;10.70;100.00;96491.81;5124910;27;24429;-76
2022/07/02 02:58:30;;;;;;;1.80;0.70;;;;;;;10.84;100.00;96495.38;5122357;27;24449;-76
2022/07/02 03:00:56;;;;;;;0.95;0.60;;;;;;;10.84;100.00;96495.38;5125253;27;24433;-75
2022/07/02 03:03:23;;;;;;;0.82;0.50;;;;;;;10.79;100.00;96492.19;5120412;27;25011;-75
2022/07/02 03:05:51;;;;;;;2.17;0.70;;;;;;;10.81;100.00;96494.69;5123860;27;24978;-75
2022/07/02 03:08:17;;;;;;;4.53;0.73;;;;;;;11.03;100.00;96497.00;5121253;27;24482;-75
2022/07/02 03:10:44;;;;;;;0.80;0.57;;;;;;;11.03;100.00;96499.59;5123085;27;24433;-76
2022/07/02 03:13:10;;;;;;;2.97;0.80;;;;;;;10.86;100.00;96497.88;5125197;27;25030;-76
2022/07/02 03:15:37;;;;;;;7.65;0.60;;;;;;;10.83;100.00;96500.63;5121772;27;24448;-76
2022/07/02 03:18:04;;;;;;;9.60;0.70;;;;;;;10.67;100.00;96497.97;5124123;27;24856;-76
2022/07/02 03:20:31;;;;;;;1.30;0.50;;;;;;;10.50;100.00;96488.50;5121123;27;25033;-75
2022/07/02 03:22:59;;;;;;;1.00;0.40;;;;;;;10.41;100.00;96494.97;5125041;27;25046;-76
2022/07/02 03:25:25;;;;;;;0.70;0.40;;;;;;;10.62;100.00;96500.81;5121642;27;24472;-75
2022/07/02 03:27:52;;;;;;;0.43;0.40;;;;;;;10.71;100.00;96506.44;5124100;27;24503;-76
2022/07/02 03:30:18;;;;;;;0.90;0.43;;;;;;;10.58;100.00;96501.06;5122682;27;24796;-76
2022/07/02 03:32:45;;;;;;;1.98;0.40;;;;;;;10.42;100.00;96501.00;5124373;27;20860;-76
2022/07/02 03:35:11;;;;;;;0.50;0.50;;;;;;;10.25;100.00;96499.25;5123675;27;24438;-76
2022/07/02 03:37:38;;;;;;;0.70;0.60;;;;;;;10.09;100.00;96508.66;5124196;27;20780;-76
2022/07/02 03:40:07;;;;;;;0.50;0.50;;;;;;;10.04;100.00;96505.44;5124567;27;24430;-77
2022/07/02 03:42:33;;;;;;;0.60;0.45;;;;;;;10.08;100.00;96499.19;5120443;27;20788;-75
2022/07/02 03:45:00;;;;;;;2.50;0.70;;;;;;;10.18;100.00;96505.59;5123384;27;24982;-76
2022/07/02 03:47:26;;;;;;;2.92;0.60;;;;;;;10.25;100.00;96507.03;5122660;27;24482;-75
2022/07/02 03:49:52;;;;;;;0.30;0.30;;;;;;;10.22;100.00;96512.31;5113384;27;24452;-75
2022/07/02 03:52:19;;;;;;;6.90;0.60;;;;;;;10.26;100.00;96519.03;5113291;27;24452;-75
2022/07/02 03:54:45;;;;;;;1.95;0.50;;;;;;;10.32;100.00;96518.75;5126713;27;24449;-75
2022/07/02 03:57:13;;;;;;;1.75;0.60;;;;;;;10.36;100.00;96522.03;5116439;27;24457;-75
2022/07/02 03:59:40;;;;;;;4.47;0.57;;;;;;;10.34;100.00;96524.66;5113366;27;24441;-76
2022/07/02 04:02:06;;;;;;;1.70;0.60;;;;;;;10.34;100.00;96521.25;5114795;27;24450;-75
2022/07/02 04:04:33;;;;;;;1.48;0.60;;;;;;;10.48;100.00;96525.75;5122824;27;24442;-75
2022/07/02 04:06:59;;;;;;;4.80;0.80;;;;;;;10.56;100.00;96523.59;5118774;27;24482;-75
2022/07/02 04:09:25;;;;;;;1.05;0.57;;;;;;;10.52;100.00;96530.69;5121920;27;24836;-76
2022/07/02 04:11:52;;;;;;;2.23;0.90;;;;;;;10.52;100.00;96535.03;5121586;27;25070;-76
2022/07/02 04:14:20;;;;;;;5.30;1.10;;;;;;;10.56;100.00;96521.00;5126592;27;24436;-76
2022/07/02 04:16:46;;;;;;;0.82;0.63;;;;;;;10.51;100.00;96518.66;5118515;27;24993;-75
2022/07/02 04:19:13;;;;;;;0.73;0.50;;;;;;;10.62;100.00;96512.94;5118210;27;24460;-75
2022/07/02 04:21:39;;;;;;;2.90;0.70;;;;;;;10.74;100.00;96524.41;5114940;27;24444;-75
2022/07/02 04:24:06;;;;;;;4.53;0.50;;;;;;;10.77;100.00;96516.50;5123090;27;24552;-76
2022/07/02 04:26:33;;;;;;;0.40;0.40;;;;;;;10.90;100.00;96522.69;5117816;27;24444;-76
2022/07/02 04:28:59;;;;;;;2.77;0.40;;;;;;;10.86;100.00;96522.03;5116256;27;24436;-76
2022/07/02 04:31:27;;;;;;;2.03;0.43;;;;;;;10.89;100.00;96519.28;5121718;27;24437;-76
2022/07/02 04:33:53;;;;;;;0.60;0.40;;;;;;;10.89;100.00;96524.44;5109321;27;24494;-76
2022/07/02 04:36:20;;;;;;;2.13;0.70;;;;;;;10.93;100.00;96517.34;5114482;27;24449;-76
2022/07/02 04:38:46;;;;;;;0.90;0.50;;;;;;;11.00;100.00;96513.53;5121855;27;24456;-76
2022/07/02 04:41:13;;;;;;;1.45;0.60;;;;;;;10.97;100.00;96521.47;5120362;27;24444;-76
2022/07/02 04:43:39;;;;;;;3.35;0.40;;;;;;;11.07;100.00;96527.84;5115398;27;24448;-75
2022/07/02 04:46:05;;;;;;;1.20;0.47;;;;;;;11.12;100.00;96522.41;5117159;27;24421;-75
2022/07/02 04:48:33;;;;;;;3.10;0.60;;;;;;;11.13;100.00;96524.94;5120306;27;24429;-76
2022/07/02 04:51:00;;;;;;;1.73;0.70;;;;;;;11.19;100.00;96518.56;5121892;27;24441;-76
2022/07/02 04:53:26;;;;;;;0.50;0.50;;;;;;;11.22;100.00;96523.59;5112316;27;25096;-75
2022/07/02 04:55:53;;;;;;;8.80;0.80;;;;;;;11.08;100.00;96521.72;5116299;27;24433;-76
2022/07/02 04:58:19;;;;;;;0.85;0.80;;;;;;;11.14;100.00;96520.59;5122111;27;25001;-76
2022/07/02 05:00:46;;;;;;;0.75;0.75;;;;;;;11.31;100.00;96525.72;5121238;27;24502;-76
2022/07/02 05:03:12;;;;;;;0.82;0.70;;;;;;;11.42;100.00;96527.75;5119537;27;24449;-76
2022/07/02 05:05:40;;;;;;;5.15;0.90;;;;;;;11.32;100.00;96529.97;5123657;27;24485;-75
2022/07/02 05:08:06;;;;;;;0.82;0.60;;;;;;;11.46;100.00;96529.25;5126287;27;24425;-76
2022/07/02 05:10:33;;;;;;;2.10;0.90;;;;;;;11.15;100.00;96519.66;5121112;27;24444;-76
2022/07/02 05:13:03;;;;;;;6.30;0.87;;;;;;;11.12;100.00;96528.47;5126654;27;24451;-77
2022/07/02 05:15:30;;;;;;;1.92;0.73;;;;;;;11.00;100.00;96528.25;5121433;27;24823;-76
2022/07/02 05:17:56;;;;;;;1.08;0.73;;;;;;;11.11;100.00;96531.13;5128209;27;24455;-76
2022/07/02 05:20:23;;;;;;;2.70;1.00;;;;;;;11.05;100.00;96521.91;5121259;28;24513;-76
2022/07/02 05:22:51;;;;;;;1.80;1.00;;;;;;;11.09;100.00;96514.81;5124566;27;24438;-76
2022/07/02 05:25:17;;;;;;;1.15;1.00;;;;;;;11.15;100.00;96520.50;5120189;28;24433;-76
2022/07/02 05:27:44;;;;;;;2.30;0.90;;;;;;;11.33;100.00;96520.44;5123574;27;24826;-77
2022/07/02 05:30:11;;;;;;;2.10;1.10;;;;;;;11.43;100.00;96519.03;5115402;27;24433;-76
2022/07/02 05:32:38;;;;;;;0.90;0.73;;;;;;;11.46;100.00;96528.38;5116032;28;24441;-77
2022/07/02 05:35:05;;;;;;;1.02;0.93;;;;;;;11.58;100.00;96518.19;5117200;28;24441;-77
2022/07/02 05:37:31;;;;;;;2.67;1.05;;;;;;;11.68;100.00;96522.88;5119686;27;24495;-77
2022/07/02 05:39:59;;;;;;;1.00;0.90;;;;;;;11.93;100.00;96518.00;5113316;28;24989;-77
2022/07/02 05:42:25;;;;;;;4.10;1.10;;;;;;;11.92;100.00;96520.72;5120835;28;24441;-73
2022/07/02 05:44:52;;;;;;;2.30;1.00;;;;;;;12.03;100.00;96531.31;5114659;27;24437;-75
2022/07/02 05:47:18;;;;;;;5.38;1.10;;;;;;;12.29;100.00;96530.69;5118929;27;24440;-76
2022/07/02 05:49:45;;;;;;;0.93;0.80;;;;;;;12.59;100.00;96535.00;5112219;28;24433;-75
2022/07/02 05:52:11;;;;;;;2.87;1.10;;;;;;;12.68;100.00;96542.28;5106222;28;24467;-74
2022/07/02 05:54:37;;;;;;;1.90;0.77;;;;;;;12.73;100.00;96542.00;5118954;28;24438;-76
2022/07/02 05:57:06;;;;;;;5.22;0.93;;;;;;;12.61;100.00;96540.97;5119967;28;24470;-75
2022/07/02 05:59:32;;;;;;;1.33;0.82;;;;;;;12.63;100.00;96538.28;5117328;28;24446;-77
2022/07/02 06:01:59;;;;;;;1.70;0.80;;;;;;;12.72;100.00;96543.78;5109143;28;24437;-77
2022/07/02 06:04:25;;;;;;;0.90;0.80;;;;;;;12.63;100.00;96533.06;5116853;28;24458;-77
2022/07/02 06:09:36;;;;;;;1.42;0.80;;;;;;;12.68;100.00;96537.09;5104728;28;24448;-76
2022/07/02 06:12:03;;;;;;;2.05;1.20;;;;;;;12.78;100.00;96543.41;5123749;27;25000;-77
2022/07/02 06:14:30;;;;;;;1.35;0.80;;;;;;;13.18;100.00;96543.63;5120117;27;24437;-76
2022/07/02 06:16:57;;;;;;;1.88;1.00;;;;;;;13.44;100.00;96542.03;5119352;27;24440;-76
2022/07/02 06:19:23;;;;;;;1.77;1.17;;;;;;;13.63;100.00;96539.13;5113304;28;24503;-76
2022/07/02 06:21:50;;;;;;;2.08;1.30;;;;;;;13.69;100.00;96546.56;5115738;27;24433;-76
2022/07/02 06:24:16;;;;;;;2.75;1.17;;;;;;;13.90;100.00;96535.72;5124137;27;24452;-76
2022/07/02 06:26:43;;;;;;;3.00;1.00;;;;;;;14.03;100.00;96540.03;5118729;27;24502;-76
2022/07/02 06:29:09;;;;;;;2.50;1.35;;;;;;;14.30;100.00;96528.75;5113046;27;24434;-76
2022/07/02 06:31:37;;;;;;;1.88;1.10;;;;;;;14.46;100.00;96532.06;5129002;27;24437;-75
2022/07/02 06:34:04;;;;;;;1.92;1.10;;;;;;;14.74;100.00;96540.66;5113028;27;24433;-76
2022/07/02 06:36:31;;;;;;;5.32;1.38;;;;;;;14.83;100.00;96536.59;5120462;27;24490;-75
2022/07/02 06:38:57;;;;;;;1.60;1.25;;;;;;;14.88;100.00;96537.13;5121807;27;24457;-76
2022/07/02 06:44:08;;;;;;;2.72;1.42;;;;;;;14.90;100.00;96530.00;5124894;27;24531;-76
2022/07/02 06:46:35;;;;;;;2.08;1.25;;;;;;;15.10;100.00;96532.13;5120714;27;24989;-76
2022/07/02 06:49:02;;;;;;;2.72;1.25;;;;;;;15.24;100.00;96521.56;5124723;27;24432;-76
2022/07/02 06:51:29;;;;;;;1.92;1.20;;;;;;;15.58;100.00;96527.03;5122822;27;24434;-75
2022/07/02 06:54:00;;;;;;;2.88;1.27;;;;;;;15.69;100.00;96529.75;5123484;27;24833;-76
2022/07/02 06:56:27;;;;;;;1.30;1.13;;;;;;;15.93;100.00;96534.16;5121493;27;24437;-75
2022/07/02 06:58:53;;;;;;;2.35;1.17;;;;;;;15.97;100.00;96527.75;5122411;27;24449;-76
2022/07/02 07:01:20;;;;;;;1.88;1.10;;;;;;;16.08;100.00;96527.81;5121216;27;24482;-76
2022/07/02 07:03:46;;;;;;;0.90;0.82;;;;;;;16.34;100.00;96538.13;5124545;27;24433;-76
2022/07/02 07:06:14;;;;;;;1.95;1.02;;;;;;;16.58;100.00;96531.09;5117890;27;24437;-75
2022/07/02 07:08:41;;;;;;;1.33;1.05;;;;;;;16.47;100.00;96520.59;5108595;27;24533;-75
2022/07/02 07:11:07;;;;;;;4.18;1.20;;;;;;;16.78;100.00;96521.78;5118782;27;24632;-75
2022/07/02 07:13:33;;;;;;;0.90;0.83;;;;;;;17.09;100.00;96516.81;5117999;27;25187;-76
2022/07/02 07:16:00;;;;;;;1.60;1.05;;;;;;;16.87;100.00;96522.84;5107190;27;24437;-75
2022/07/02 07:18:26;;;;;;;1.92;0.90;;;;;;;17.05;100.00;96523.25;5110420;27;24548;-75
2022/07/02 07:20:53;;;;;;;3.38;1.00;;;;;;;17.14;100.00;96525.16;5123669;27;24445;-75
2022/07/02 07:23:21;;;;;;;2.03;0.85;;;;;;;17.25;100.00;96519.09;5115879;27;24445;-75
2022/07/02 07:25:47;;;;;;;1.10;0.90;;;;;;;17.46;100.00;96516.56;5104802;27;24822;-75
2022/07/02 07:28:13;;;;;;;2.60;1.17;;;;;;;17.51;100.00;96517.91;5119484;27;24478;-75
2022/07/02 07:30:40;;;;;;;0.68;0.68;;;;;;;18.00;100.00;96516.63;5104008;27;24486;-74
2022/07/02 07:33:06;;;;;;;1.20;0.90;;;;;;;18.12;100.00;96513.00;5120843;27;24452;-75
2022/07/02 07:35:33;;;;;;;2.60;0.75;;;;;;;18.24;100.00;96510.34;5121794;27;24467;-75
2022/07/02 07:37:59;;;;;;;0.82;0.70;;;;;;;18.35;100.00;96507.66;5110880;28;24986;-75
2022/07/02 07:40:28;;;;;;;1.47;0.83;;;;;;;18.54;98.43;96513.09;5121909;27;24434;-76
2022/07/02 07:42:54;;;;;;;1.95;0.90;;;;;;;18.63;94.90;96514.94;5117401;27;24490;-75
2022/07/02 07:45:21;;;;;;;0.85;0.57;;;;;;;19.11;97.48;96510.97;5108290;27;24433;-75
2022/07/02 07:47:48;;;;;;;0.90;0.70;;;;;;;19.12;94.58;96506.53;5118287;27;24487;-75
2022/07/02 07:50:14;;;;;;;1.57;0.70;;;;;;;19.56;92.48;96508.78;5120634;27;24525;-75
2022/07/02 07:52:40;;;;;;;1.15;0.70;;;;;;;20.02;91.50;96502.16;5118175;27;25020;-73
2022/07/02 07:55:08;;;;;;;1.08;0.60;;;;;;;20.50;76.40;96500.50;5099903;27;24438;-73
2022/07/02 07:57:35;;;;;;;3.42;0.55;;;;;;;20.59;72.77;96504.13;5113519;27;24445;-75
2022/07/02 08:00:02;;;;;;;0.95;0.52;;;;;;;20.75;78.88;96496.47;5117394;27;24499;-75
2022/07/02 08:02:30;;;;;;;1.90;0.70;;;;;;;20.79;73.95;96500.47;5106059;27;24540;-75
2022/07/02 08:04:57;;;;;;;1.40;0.70;;;;;;;21.07;74.84;96490.03;5115757;27;24425;-75
2022/07/02 08:07:23;;;;;;;2.05;0.52;;;;;;;21.11;69.80;96486.13;5121518;27;24451;-75
2022/07/02 08:09:52;;;;;;;5.20;0.75;;;;;;;21.30;73.49;96493.94;5114658;27;24525;-75
2022/07/02 08:12:19;;;;;;;0.60;0.50;;;;;;;21.18;68.10;96489.84;5118429;27;24474;-75
2022/07/02 08:14:47;;;;;;;3.72;0.43;;;;;;;20.58;67.01;96490.13;5109219;28;24990;-74
2022/07/02 08:17:14;;;;;;;1.27;0.60;;;;;;;20.46;72.64;96489.38;5118132;27;24444;-75
2022/07/02 08:19:40;;;;;;;1.55;0.57;;;;;;;20.64;63.09;96494.81;5112687;27;24461;-75
2022/07/02 08:22:06;;;;;;;0.70;0.40;;;;;;;20.82;62.67;96496.72;5123411;27;24437;-74
2022/07/02 08:24:33;;;;;;;2.15;0.60;;;;;;;20.93;63.76;96497.38;5112766;27;24445;-71
2022/07/02 08:26:59;;;;;;;0.57;0.40;;;;;;;21.28;72.91;96485.34;5112840;27;24498;-75
2022/07/02 08:29:26;;;;;;;1.37;0.60;;;;;;;21.47;65.76;96489.75;5106544;27;24434;-75
2022/07/02 08:31:54;;;;;;;2.15;0.60;;;;;;;21.65;62.25;96481.88;5119792;27;24432;-78
2022/07/02 08:34:20;;;;;;;0.50;0.40;;;;;;;21.86;62.44;96477.16;5111753;27;24529;-76
2022/07/02 08:36:46;;;;;;;0.75;0.60;;;;;;;21.92;68.36;96473.94;5115279;27;24985;-78
2022/07/02 08:39:13;;;;;;;1.10;0.70;;;;;;;21.83;68.31;96469.53;5119654;27;25088;-75
2022/07/02 08:41:42;;;;;;;1.35;0.70;;;;;;;21.97;66.44;96469.03;5109914;27;24433;-74
2022/07/02 08:44:09;;;;;;;1.70;0.68;;;;;;;21.91;65.69;96472.25;5118211;27;24986;-74
2022/07/02 08:46:39;;;;;;;0.70;0.50;;;;;;;22.05;66.93;96470.91;5120337;27;24811;-75
2022/07/02 08:49:08;;;;;;;1.30;0.40;;;;;;;22.07;64.82;96473.44;5116917;27;24428;-75
2022/07/02 08:51:35;;;;;;;1.00;0.50;;;;;;;22.31;59.67;96472.84;5119442;27;24429;-77
2022/07/02 08:54:01;;;;;;;1.90;0.60;;;;;;;22.06;60.90;96459.38;5119480;27;24447;-74
2022/07/02 08:56:28;;;;;;;0.90;0.60;;;;;;;21.83;61.81;96451.09;5118226;27;24432;-74
2022/07/02 08:58:55;;;;;;;0.85;0.50;;;;;;;21.86;64.70;96445.53;5128645;27;24448;-74
2022/07/02 09:01:23;;;;;;;1.40;0.50;;;;;;;21.89;63.36;96441.75;5121529;27;24433;-74
2022/07/02 09:03:51;;;;;;;1.53;0.53;;;;;;;22.11;61.23;96443.13;5115711;27;24444;-74
2022/07/02 09:06:21;;;;;;;1.25;0.50;;;;;;;22.36;69.87;96439.75;5118148;27;24445;-74
2022/07/02 09:08:48;;;;;;;2.78;0.60;;;;;;;22.50;59.04;96437.53;5118760;27;24872;-74
2022/07/02 09:11:15;;;;;;;1.25;0.50;;;;;;;22.05;59.82;96439.25;5123755;27;24436;-74
2022/07/02 09:13:43;;;;;;;5.17;0.80;;;;;;;21.90;62.61;96440.78;5113965;28;24509;-75
2022/07/02 09:16:10;;;;;;;1.88;0.68;;;;;;;22.19;67.66;96436.13;5106897;27;24433;-77
2022/07/02 09:18:36;;;;;;;1.48;0.43;;;;;;;22.11;61.85;96449.22;5111605;28;25046;-77
2022/07/02 09:21:03;;;;;;;3.58;0.98;;;;;;;22.18;64.91;96445.03;5103861;28;24445;-78
2022/07/02 09:23:31;;;;;;;2.20;0.50;;;;;;;22.40;63.22;96440.28;5108374;28;24437;-77
2022/07/02 09:25:57;;;;;;;2.00;0.50;;;;;;;21.89;57.29;96439.13;5119069;27;24440;-78
2022/07/02 09:28:24;;;;;;;2.25;0.80;;;;;;;22.17;61.08;96442.53;5089066;27;24431;-76
2022/07/02 09:30:50;;;;;;;0.80;0.45;;;;;;;21.87;60.76;96430.53;5063094;28;24438;-75
2022/07/02 09:33:32;;;;;;;1.00;0.40;;;;;;;22.14;62.71;96440.22;5060314;28;24836;-76
2022/07/02 09:36:09;;;;;;;0.32;0.30;;;;;;;21.69;60.18;96444.53;5061887;28;24469;-74
2022/07/02 09:38:45;;;;;;;1.60;0.60;;;;;;;21.72;61.31;96446.03;5062918;28;25031;-75
2022/07/02 09:41:14;;;;;;;0.60;0.40;;;;;;;22.07;61.80;96441.78;5064038;28;24820;-76
2022/07/02 09:43:41;;;;;;;0.90;0.50;;;;;;;21.69;61.13;96441.91;5068344;28;24458;-74
2022/07/02 09:46:18;;;;;;;2.47;0.60;;;;;;;21.73;60.57;96443.25;5068690;28;25049;-75
2022/07/02 09:48:47;;;;;;;0.90;0.30;;;;;;;22.02;55.20;96450.13;5069459;28;24430;-75
2022/07/02 09:51:18;;;;;;;1.23;0.45;;;;;;;22.09;57.84;96453.81;5070542;28;24458;-76
2022/07/02 09:53:51;;;;;;;2.58;0.50;;;;;;;22.41;54.67;96455.13;5072709;28;24515;-75
2022/07/02 09:56:19;;;;;;;1.50;0.47;;;;;;;22.42;57.33;96452.31;5074070;28;24937;-75
2022/07/02 09:58:46;;;;;;;1.25;0.43;;;;;;;22.35;53.71;96451.25;5077714;28;24931;-75
2022/07/02 10:01:18;;;;;;;0.98;0.40;;;;;;;22.57;56.45;96444.66;5078909;28;25182;-76
2022/07/02 10:03:50;;;;;;;1.85;0.50;;;;;;;22.58;57.23;96433.16;5078766;28;24450;-76
2022/07/02 10:06:18;;;;;;;2.50;0.50;;;;;;;22.30;59.50;96440.34;5079653;28;24979;-76
2022/07/02 10:08:46;;;;;;;4.75;0.70;;;;;;;22.56;53.81;96432.47;5085565;28;24525;-74
2022/07/02 10:11:16;;;;;;;2.85;0.60;;;;;;;22.96;54.09;96430.28;5082728;28;24520;-74
2022/07/02 10:13:43;;;;;;;0.60;0.50;;;;;;;23.01;60.60;96438.53;5077152;28;24438;-74
2022/07/02 10:16:14;;;;;;;0.80;0.40;;;;;;;23.18;53.16;96435.00;5080762;28;24506;-75
2022/07/02 10:18:43;;;;;;;0.32;0.30;;;;;;;23.22;56.91;96433.69;5073839;28;24422;-76
2022/07/02 10:21:13;;;;;;;1.83;0.60;;;;;;;22.76;57.88;96442.81;5080826;28;24434;-76
2022/07/02 10:23:41;;;;;;;0.90;0.63;;;;;;;22.38;59.26;96436.94;5068017;28;24449;-76
2022/07/02 10:26:10;;;;;;;2.05;0.60;;;;;;;22.29;59.89;96438.69;5091136;28;24513;-76
2022/07/02 10:28:39;;;;;;;1.55;0.60;;;;;;;22.53;61.35;96430.13;5084524;28;24469;-77
2022/07/02 10:31:12;;;;;;;3.00;0.60;;;;;;;22.71;56.44;96430.91;5092107;28;24469;-77
2022/07/02 10:33:44;;;;;;;1.05;0.50;;;;;;;23.06;58.16;96423.84;5074941;28;25054;-77
2022/07/02 10:36:14;;;;;;;0.55;0.40;;;;;;;23.19;57.91;96429.53;5081464;28;24427;-77
2022/07/02 10:38:43;;;;;;;1.40;0.60;;;;;;;23.17;58.85;96422.75;5064281;28;24430;-77
2022/07/02 10:41:12;;;;;;;0.55;0.40;;;;;;;23.22;58.21;96414.38;5080258;28;24533;-77
2022/07/02 10:43:41;;;;;;;3.72;0.57;;;;;;;23.01;57.83;96417.41;5067334;28;24430;-77
2022/07/02 10:46:11;;;;;;;2.60;0.50;;;;;;;23.12;59.16;96417.13;5081706;28;24513;-77
2022/07/02 10:48:49;;;;;;;1.60;0.80;;;;;;;22.84;54.06;96421.72;5082089;28;24461;-77
2022/07/02 10:51:19;;;;;;;1.27;0.50;;;;;;;23.26;53.64;96413.88;5080770;28;24418;-77
2022/07/02 10:53:49;;;;;;;3.45;0.50;;;;;;;23.52;56.14;96413.00;5082761;28;24971;-77
2022/07/02 10:56:16;;;;;;;1.10;0.57;;;;;;;23.76;52.09;96414.88;5081447;28;24792;-75
2022/07/02 10:58:45;;;;;;;1.10;0.40;;;;;;;23.96;62.67;96410.97;5080743;28;24526;-76
2022/07/02 11:01:13;;;;;;;0.80;0.40;;;;;;;24.07;51.78;96407.16;5078090;28;24500;-78
2022/07/02 11:03:53;;;;;;;2.05;0.45;;;;;;;24.06;49.84;96400.19;5071464;28;24517;-78
2022/07/02 11:06:24;;;;;;;1.10;0.55;;;;;;;24.12;48.78;96397.72;5076880;28;24430;-76
2022/07/02 11:08:52;;;;;;;0.80;0.40;;;;;;;24.34;58.60;96403.34;5075270;28;24474;-77
2022/07/02 11:11:22;;;;;;;1.20;0.43;;;;;;;24.30;53.68;96396.75;5079650;28;24526;-76
2022/07/02 11:13:54;;;;;;;1.13;0.40;;;;;;;24.10;50.20;96399.72;5082050;28;24441;-75
2022/07/02 11:16:23;;;;;;;0.63;0.40;;;;;;;24.21;52.09;96395.91;5076601;28;24426;-76
2022/07/02 11:18:51;;;;;;;2.28;0.47;;;;;;;23.90;51.59;96396.56;5072136;28;24437;-76
2022/07/02 11:21:18;;;;;;;1.08;0.50;;;;;;;23.63;54.71;96395.00;5070249;28;24450;-75
2022/07/02 11:23:45;;;;;;;0.90;0.50;;;;;;;23.70;49.77;96389.94;5071127;28;24453;-76
2022/07/02 11:26:16;;;;;;;0.75;0.50;;;;;;;23.83;53.97;96408.78;5049426;22;24559;-72
2022/07/02 11:28:43;;;;;;;1.00;0.50;;;;;;;23.74;49.84;96396.53;5004543;28;24532;-74
2022/07/02 11:31:11;;;;;;;1.45;0.60;;;;;;;23.77;52.62;96393.56;5006343;28;24523;-74
2022/07/02 11:33:43;;;;;;;0.93;0.40;;;;;;;23.82;53.46;96385.97;5000374;28;24445;-74
2022/07/02 11:36:09;;;;;;;0.35;0.32;;;;;;;23.66;52.93;96396.50;5001800;28;24837;-77